createdAt,value
2017-09-18T00:00:57.981Z,7.70
2017-09-18T00:03:25.561Z,8.00
2017-09-18T00:05:53.313Z,7.87
2017-09-18T00:08:20.913Z,8.53
2017-09-18T00:10:48.459Z,7.30
2017-09-18T00:13:16.054Z,7.80
2017-09-18T00:15:43.647Z,8.70
2017-09-18T00:18:11.215Z,7.10
2017-09-18T00:20:38.990Z,7.80
2017-09-18T00:23:06.611Z,7.00
2017-09-18T00:25:34.122Z,7.20
2017-09-18T00:28:01.931Z,6.47
2017-09-18T00:30:29.517Z,7.27
2017-09-18T00:32:57.067Z,8.27
2017-09-18T00:35:24.650Z,7.00
2017-09-18T00:37:52.278Z,6.40
2017-09-18T00:40:19.819Z,6.57
2017-09-18T00:42:47.361Z,7.20
2017-09-18T00:45:14.955Z,6.20
2017-09-18T00:47:42.479Z,6.20
2017-09-18T00:50:10.055Z,6.73
2017-09-18T00:52:37.701Z,6.30
2017-09-18T00:55:05.309Z,6.03
2017-09-18T00:57:33.138Z,6.10
2017-09-18T01:00:00.793Z,6.40
2017-09-18T01:02:28.414Z,5.87
2017-09-18T01:04:55.962Z,6.40
2017-09-18T01:07:23.556Z,5.83
2017-09-18T01:09:51.181Z,5.80
2017-09-18T01:12:18.975Z,6.50
2017-09-18T01:14:46.617Z,6.17
2017-09-18T01:17:14.211Z,5.53
2017-09-18T01:19:41.762Z,5.50
2017-09-18T01:22:09.548Z,6.17
2017-09-18T01:24:37.150Z,6.67
2017-09-18T01:27:04.911Z,6.87
2017-09-18T01:29:32.706Z,6.17
2017-09-18T01:32:00.294Z,6.33
2017-09-18T01:34:27.865Z,5.63
2017-09-18T01:36:55.413Z,6.03
2017-09-18T01:39:23.049Z,5.90
2017-09-18T01:41:50.586Z,6.20
2017-09-18T01:44:18.187Z,5.57
2017-09-18T01:46:45.812Z,7.20
2017-09-18T01:49:13.563Z,5.00
2017-09-18T01:51:41.139Z,5.67
2017-09-18T01:54:08.763Z,5.93
2017-09-18T01:56:36.556Z,5.40
2017-09-18T01:59:04.182Z,5.03
2017-09-18T02:01:31.840Z,5.30
2017-09-18T02:03:59.598Z,5.57
2017-09-18T02:06:27.197Z,5.40
2017-09-18T02:08:54.818Z,5.60
2017-09-18T02:11:24.192Z,4.77
2017-09-18T02:13:51.749Z,5.20
2017-09-18T02:16:20.044Z,5.07
2017-09-18T02:18:47.909Z,5.47
2017-09-18T02:21:15.731Z,5.00
2017-09-18T02:23:43.362Z,4.87
2017-09-18T02:26:10.934Z,5.10
2017-09-18T02:28:38.502Z,5.40
2017-09-18T02:31:06.419Z,5.00
2017-09-18T02:33:33.992Z,4.87
2017-09-18T02:36:01.613Z,5.33
2017-09-18T02:38:29.238Z,5.17
2017-09-18T02:40:56.769Z,5.00
2017-09-18T02:43:24.566Z,5.20
2017-09-18T02:45:52.339Z,5.57
2017-09-18T02:48:20.114Z,5.60
2017-09-18T02:50:47.908Z,4.80
2017-09-18T02:53:15.536Z,5.70
2017-09-18T02:55:43.079Z,5.10
2017-09-18T02:58:10.651Z,5.37
2017-09-18T03:00:38.224Z,5.03
2017-09-18T03:03:05.850Z,5.17
2017-09-18T03:05:33.385Z,5.33
2017-09-18T03:08:01.029Z,5.30
2017-09-18T03:10:28.656Z,4.43
2017-09-18T03:12:56.207Z,4.80
2017-09-18T03:15:23.794Z,4.80
2017-09-18T03:17:51.340Z,5.67
2017-09-18T03:20:18.873Z,5.40
2017-09-18T03:22:46.480Z,5.30
2017-09-18T03:25:14.040Z,5.60
2017-09-18T03:27:41.608Z,6.07
2017-09-18T03:30:10.615Z,5.50
2017-09-18T03:32:38.213Z,5.30
2017-09-18T03:35:06.067Z,5.80
2017-09-18T03:37:33.870Z,6.23
2017-09-18T03:40:01.457Z,5.80
2017-09-18T03:42:29.206Z,5.27
2017-09-18T03:44:56.834Z,5.80
2017-09-18T03:47:24.396Z,6.33
2017-09-18T03:49:51.955Z,6.10
2017-09-18T03:52:19.585Z,6.00
2017-09-18T03:54:47.183Z,4.90
2017-09-18T03:57:14.707Z,6.33
2017-09-18T03:59:42.383Z,6.10
2017-09-18T04:02:10.738Z,4.77
2017-09-18T04:04:38.553Z,5.67
2017-09-18T04:07:06.154Z,5.80
2017-09-18T04:09:33.749Z,6.17
2017-09-18T04:12:01.969Z,6.50
2017-09-18T04:14:29.525Z,5.40
2017-09-18T04:16:57.100Z,5.17
2017-09-18T04:19:25.618Z,6.70
2017-09-18T04:21:53.232Z,6.20
2017-09-18T04:24:21.038Z,5.50
2017-09-18T04:26:48.586Z,6.23
2017-09-18T04:29:16.098Z,5.13
2017-09-18T04:31:43.862Z,5.57
2017-09-18T04:34:11.461Z,8.23
2017-09-18T04:36:39.010Z,5.90
2017-09-18T04:39:06.603Z,6.83
2017-09-18T04:41:34.138Z,7.30
2017-09-18T04:44:01.666Z,5.67
2017-09-18T04:46:29.293Z,6.27
2017-09-18T04:48:56.835Z,5.97
2017-09-18T04:51:24.448Z,5.03
2017-09-18T04:53:52.019Z,6.30
2017-09-18T04:56:19.617Z,7.07
2017-09-18T04:58:47.206Z,6.57
2017-09-18T05:01:14.815Z,6.60
2017-09-18T05:03:42.352Z,5.50
2017-09-18T05:06:10.260Z,5.60
2017-09-18T05:08:37.793Z,6.40
2017-09-18T05:11:05.963Z,6.37
2017-09-18T05:13:33.492Z,5.60
2017-09-18T05:16:01.283Z,5.40
2017-09-18T05:18:28.872Z,6.43
2017-09-18T05:20:56.397Z,6.03
2017-09-18T05:23:23.990Z,7.17
2017-09-18T05:25:51.520Z,5.20
2017-09-18T05:28:19.065Z,5.47
2017-09-18T05:30:46.642Z,6.13
2017-09-18T05:33:14.168Z,4.70
2017-09-18T05:35:41.742Z,4.83
2017-09-18T05:38:09.300Z,5.70
2017-09-18T05:40:36.807Z,5.27
2017-09-18T05:43:04.697Z,4.70
2017-09-18T05:45:32.323Z,5.17
2017-09-18T05:47:59.847Z,6.07
2017-09-18T05:50:27.373Z,5.10
2017-09-18T05:52:54.954Z,4.80
2017-09-18T05:55:22.537Z,4.30
2017-09-18T05:57:50.104Z,4.70
2017-09-18T06:00:17.683Z,4.30
2017-09-18T06:02:45.199Z,4.63
2017-09-18T06:05:12.702Z,4.43
2017-09-18T06:07:40.486Z,4.37
2017-09-18T06:10:08.022Z,5.67
2017-09-18T06:12:35.770Z,5.50
2017-09-18T06:15:03.349Z,4.10
2017-09-18T06:17:30.975Z,4.57
2017-09-18T06:19:58.484Z,5.43
2017-09-18T06:22:26.044Z,5.43
2017-09-18T06:24:54.660Z,4.73
2017-09-18T06:27:22.217Z,5.30
2017-09-18T06:29:49.767Z,4.90
2017-09-18T06:32:17.337Z,4.10
2017-09-18T06:34:44.883Z,5.30
2017-09-18T06:37:12.404Z,5.13
2017-09-18T06:39:40.035Z,5.60
2017-09-18T06:42:08.067Z,5.70
2017-09-18T06:44:35.589Z,6.63
2017-09-18T06:47:03.161Z,4.97
2017-09-18T06:49:30.718Z,4.70
2017-09-18T06:51:58.253Z,5.50
2017-09-18T06:54:25.899Z,5.10
2017-09-18T06:56:53.437Z,5.23
2017-09-18T06:59:20.953Z,5.17
2017-09-18T07:01:48.584Z,5.50
2017-09-18T07:04:16.152Z,4.63
2017-09-18T07:06:43.691Z,4.37
2017-09-18T07:09:11.251Z,4.43
2017-09-18T07:11:38.765Z,4.53
2017-09-18T07:14:06.357Z,4.60
2017-09-18T07:16:33.938Z,4.40
2017-09-18T07:19:01.704Z,4.40
2017-09-18T07:21:29.222Z,4.70
2017-09-18T07:23:56.834Z,5.27
2017-09-18T07:26:24.394Z,4.60
2017-09-18T07:28:51.967Z,3.93
2017-09-18T07:31:19.554Z,5.40
2017-09-18T07:33:47.161Z,4.60
2017-09-18T07:36:14.676Z,4.50
2017-09-18T07:38:42.237Z,4.63
2017-09-18T07:41:09.777Z,5.03
2017-09-18T07:43:37.597Z,5.60
2017-09-18T07:46:05.206Z,4.67
2017-09-18T07:48:32.832Z,4.97
2017-09-18T07:51:00.338Z,5.37
2017-09-18T07:53:28.106Z,5.37
2017-09-18T07:55:55.875Z,5.47
2017-09-18T07:58:23.618Z,5.20
2017-09-18T08:00:51.159Z,4.80
2017-09-18T08:03:19.159Z,4.20
2017-09-18T08:05:46.691Z,4.17
2017-09-18T08:08:14.339Z,4.87
2017-09-18T08:10:41.935Z,4.20
2017-09-18T08:13:09.800Z,4.57
2017-09-18T08:15:37.360Z,5.50
2017-09-18T08:18:04.927Z,8.87
2017-09-18T08:20:32.483Z,5.77
2017-09-18T08:23:00.103Z,6.20
2017-09-18T08:25:27.624Z,6.03
2017-09-18T08:27:55.202Z,4.70
2017-09-18T08:30:23.980Z,6.63
2017-09-18T08:32:51.546Z,5.83
2017-09-18T08:35:19.067Z,5.83
2017-09-18T08:37:46.644Z,5.10
2017-09-18T08:40:14.555Z,5.50
2017-09-18T08:42:42.330Z,5.53
2017-09-18T08:45:09.965Z,5.70
2017-09-18T08:47:37.594Z,4.67
2017-09-18T08:50:05.194Z,4.70
2017-09-18T08:52:32.766Z,5.70
2017-09-18T08:55:00.371Z,5.40
2017-09-18T08:57:28.256Z,4.80
2017-09-18T08:59:55.853Z,5.23
2017-09-18T09:02:23.442Z,5.10
2017-09-18T09:04:50.981Z,5.37
2017-09-18T09:07:18.551Z,5.47
2017-09-18T09:09:46.164Z,5.07
2017-09-18T09:12:13.769Z,5.40
2017-09-18T09:14:41.314Z,5.30
2017-09-18T09:17:08.879Z,5.20
2017-09-18T09:19:36.441Z,5.40
2017-09-18T09:22:03.947Z,5.90
2017-09-18T09:24:31.530Z,5.53
2017-09-18T09:26:59.344Z,5.30
2017-09-18T09:29:26.918Z,5.30
2017-09-18T09:31:54.501Z,5.77
2017-09-18T09:34:22.018Z,4.80
2017-09-18T09:36:49.542Z,5.33
2017-09-18T09:39:17.248Z,6.50
2017-09-18T09:41:45.074Z,5.20
2017-09-18T09:44:12.632Z,5.23
2017-09-18T09:46:40.242Z,5.30
2017-09-18T09:49:07.765Z,6.73
2017-09-18T09:51:35.296Z,6.33
2017-09-18T09:54:02.862Z,5.50
2017-09-18T09:56:30.410Z,5.40
2017-09-18T09:58:57.983Z,5.30
2017-09-18T10:01:25.599Z,5.43
2017-09-18T10:03:53.137Z,4.90
2017-09-18T10:06:20.723Z,5.57
2017-09-18T10:08:48.425Z,5.47
2017-09-18T10:11:15.954Z,5.40
2017-09-18T10:13:43.522Z,5.20
2017-09-18T10:16:11.089Z,5.30
2017-09-18T10:18:38.631Z,4.83
2017-09-18T10:21:06.135Z,5.77
2017-09-18T10:23:33.725Z,5.43
2017-09-18T10:26:01.233Z,5.53
2017-09-18T10:28:28.837Z,6.33
2017-09-18T10:30:56.420Z,5.20
2017-09-18T10:33:23.945Z,5.33
2017-09-18T10:35:51.804Z,5.30
2017-09-18T10:38:19.469Z,5.17
2017-09-18T10:40:47.259Z,4.90
2017-09-18T10:43:14.785Z,6.20
2017-09-18T10:45:42.362Z,5.33
2017-09-18T10:48:09.925Z,5.10
2017-09-18T10:50:37.490Z,6.07
2017-09-18T10:53:05.086Z,6.27
2017-09-18T10:55:32.826Z,5.53
2017-09-18T10:58:00.416Z,5.50
2017-09-18T11:00:28.098Z,5.60
2017-09-18T11:02:55.629Z,5.87
2017-09-18T11:05:23.397Z,6.13
2017-09-18T11:07:50.959Z,5.77
2017-09-18T11:10:18.470Z,6.03
2017-09-18T11:12:46.286Z,4.60
2017-09-18T11:15:13.873Z,5.10
2017-09-18T11:17:41.406Z,5.10
2017-09-18T11:20:08.920Z,5.07
2017-09-18T11:22:36.489Z,4.70
2017-09-18T11:25:04.072Z,4.90
2017-09-18T11:27:31.610Z,5.10
2017-09-18T11:29:59.175Z,5.03
2017-09-18T11:32:26.743Z,5.30
2017-09-18T11:34:54.265Z,5.50
2017-09-18T11:37:21.821Z,5.40
2017-09-18T11:39:49.399Z,6.03
2017-09-18T11:42:16.910Z,5.63
2017-09-18T11:44:44.471Z,4.70
2017-09-18T11:47:12.109Z,5.23
2017-09-18T11:49:39.637Z,5.73
2017-09-18T11:52:07.153Z,7.37
2017-09-18T11:54:34.712Z,4.53
2017-09-18T11:57:02.234Z,7.10
2017-09-18T11:59:30.293Z,5.60
2017-09-18T12:01:57.874Z,4.90
2017-09-18T12:04:25.397Z,6.30
2017-09-18T12:06:52.905Z,4.83
2017-09-18T12:09:20.516Z,5.67
2017-09-18T12:11:48.058Z,5.73
2017-09-18T12:14:15.879Z,5.03
2017-09-18T12:16:43.494Z,6.10
2017-09-18T12:19:11.298Z,6.10
2017-09-18T12:21:38.908Z,6.50
2017-09-18T12:24:06.493Z,5.00
2017-09-18T12:26:34.450Z,5.50
2017-09-18T12:29:02.726Z,5.10
2017-09-18T12:31:31.043Z,6.97
2017-09-18T12:33:58.670Z,5.47
2017-09-18T12:36:26.647Z,6.23
2017-09-18T12:38:54.257Z,5.90
2017-09-18T12:41:21.784Z,5.50
2017-09-18T12:43:50.001Z,4.67
2017-09-18T12:46:17.556Z,5.33
2017-09-18T12:48:45.148Z,4.87
2017-09-18T12:51:13.226Z,6.00
2017-09-18T12:53:40.788Z,4.80
2017-09-18T12:56:08.325Z,7.00
2017-09-18T12:58:35.904Z,5.70
2017-09-18T13:01:03.489Z,4.90
2017-09-18T13:03:31.104Z,5.30
2017-09-18T13:05:58.686Z,5.00
2017-09-18T13:08:26.273Z,5.30
2017-09-18T13:10:53.798Z,5.30
2017-09-18T13:13:21.297Z,6.07
2017-09-18T13:15:49.057Z,5.60
2017-09-18T13:18:16.626Z,5.73
2017-09-18T13:20:44.553Z,4.93
2017-09-18T13:23:12.167Z,6.70
2017-09-18T13:25:39.914Z,5.10
2017-09-18T13:28:07.500Z,6.00
2017-09-18T13:30:35.292Z,5.00
2017-09-18T13:33:02.817Z,5.80
2017-09-18T13:35:30.657Z,6.20
2017-09-18T13:37:58.203Z,6.47
2017-09-18T13:40:25.724Z,4.77
2017-09-18T13:42:53.341Z,6.27
2017-09-18T13:45:20.975Z,4.70
2017-09-18T13:47:48.719Z,4.27
2017-09-18T13:50:16.276Z,5.70
2017-09-18T13:52:43.835Z,5.70
2017-09-18T13:55:11.433Z,5.50
2017-09-18T13:57:38.941Z,5.47
2017-09-18T14:00:06.876Z,5.30
2017-09-18T14:02:34.412Z,4.90
2017-09-18T14:05:01.958Z,6.20
2017-09-18T14:07:29.568Z,5.50
2017-09-18T14:09:57.108Z,4.07
2017-09-18T14:12:24.627Z,4.57
2017-09-18T14:14:52.167Z,4.47
2017-09-18T14:17:19.740Z,4.00
2017-09-18T14:19:47.323Z,4.07
2017-09-18T14:22:14.876Z,5.20
2017-09-18T14:24:42.456Z,4.00
2017-09-18T14:27:10.038Z,4.17
2017-09-18T14:29:37.615Z,5.00
2017-09-18T14:32:05.985Z,3.97
2017-09-18T14:34:33.546Z,4.37
2017-09-18T14:37:01.072Z,4.30
2017-09-18T14:39:28.627Z,5.60
2017-09-18T14:41:56.402Z,4.80
2017-09-18T14:44:23.922Z,4.03
2017-09-18T14:46:51.497Z,5.37
2017-09-18T14:49:19.082Z,5.33
2017-09-18T14:51:46.689Z,4.30
2017-09-18T14:54:14.242Z,4.70
2017-09-18T14:56:41.785Z,4.40
2017-09-18T14:59:09.297Z,5.07
2017-09-18T15:01:36.872Z,5.40
2017-09-18T15:04:04.636Z,4.17
2017-09-18T15:06:32.190Z,4.17
2017-09-18T15:08:59.994Z,5.40
2017-09-18T15:11:27.523Z,4.20
2017-09-18T15:13:55.052Z,4.57
2017-09-18T15:16:22.624Z,6.47
2017-09-18T15:18:50.176Z,5.43
2017-09-18T15:21:17.717Z,4.97
2017-09-18T15:23:45.312Z,4.30
2017-09-18T15:26:12.842Z,5.77
2017-09-18T15:28:40.391Z,6.17
2017-09-18T15:31:07.981Z,8.30
2017-09-18T15:33:35.848Z,5.37
2017-09-18T15:36:04.023Z,5.40
2017-09-18T15:38:31.635Z,6.70
2017-09-18T15:40:59.846Z,6.23
2017-09-18T15:43:27.472Z,6.50
2017-09-18T15:45:55.089Z,5.10
2017-09-18T15:48:22.683Z,5.33
2017-09-18T15:50:50.429Z,5.10
2017-09-18T15:53:18.022Z,5.33
2017-09-18T15:55:45.603Z,5.40
2017-09-18T15:58:13.223Z,5.30
2017-09-18T16:00:40.813Z,5.30
2017-09-18T16:03:08.366Z,4.93
2017-09-18T16:05:35.915Z,5.60
2017-09-18T16:08:03.534Z,5.67
2017-09-18T16:10:31.082Z,5.60
2017-09-18T16:12:58.646Z,7.80
2017-09-18T16:15:26.223Z,6.80
2017-09-18T16:17:53.755Z,6.00
2017-09-18T16:20:21.290Z,5.90
2017-09-18T16:22:48.923Z,6.20
2017-09-18T16:25:16.848Z,6.37
2017-09-18T16:27:44.366Z,8.17
2017-09-18T16:30:12.848Z,7.93
2017-09-18T16:32:40.419Z,7.23
2017-09-18T16:35:08.179Z,7.20
2017-09-18T16:37:35.752Z,6.20
2017-09-18T16:40:03.546Z,6.90
2017-09-18T16:42:31.170Z,6.37
2017-09-18T16:44:58.770Z,10.17
2017-09-18T16:47:26.342Z,7.60
2017-09-18T16:49:53.924Z,7.00
2017-09-18T16:52:21.539Z,6.93
2017-09-18T16:54:49.122Z,6.87
2017-09-18T16:57:16.677Z,9.03
2017-09-18T16:59:44.330Z,8.43
2017-09-18T17:02:11.910Z,8.40
2017-09-18T17:04:39.473Z,8.47
2017-09-18T17:07:07.047Z,10.00
2017-09-18T17:09:34.671Z,10.10
2017-09-18T17:12:02.223Z,11.10
2017-09-18T17:14:29.796Z,9.50
2017-09-18T17:16:57.419Z,8.63
2017-09-18T17:19:25.011Z,8.90
2017-09-18T17:21:52.642Z,11.93
2017-09-18T17:24:20.346Z,12.13
2017-09-18T17:26:48.102Z,15.03
2017-09-18T17:29:15.734Z,13.80
2017-09-18T17:31:43.339Z,15.03
2017-09-18T17:34:11.127Z,12.07
2017-09-18T17:36:38.768Z,12.07
2017-09-18T17:39:14.524Z,13.37
2017-09-18T17:41:42.103Z,12.00
2017-09-18T17:44:09.720Z,14.67
2017-09-18T17:46:37.303Z,12.97
2017-09-18T17:49:05.152Z,11.90
2017-09-18T17:51:32.713Z,11.03
2017-09-18T17:54:00.304Z,12.90
2017-09-18T17:56:27.856Z,13.17
2017-09-18T17:58:55.532Z,12.90
2017-09-18T18:01:23.139Z,11.37
2017-09-18T18:03:51.071Z,11.30
2017-09-18T18:06:18.646Z,12.70
2017-09-18T18:08:46.275Z,13.40
2017-09-18T18:11:13.845Z,11.60
2017-09-18T18:13:41.471Z,15.00
2017-09-18T18:16:09.063Z,14.40
2017-09-18T18:18:36.623Z,15.13
2017-09-18T18:21:04.217Z,13.00
2017-09-18T18:23:31.803Z,15.00
2017-09-18T18:25:59.390Z,12.10
2017-09-18T18:28:26.989Z,13.80
2017-09-18T18:30:54.635Z,16.70
2017-09-18T18:33:22.799Z,16.03
2017-09-18T18:35:50.373Z,16.20
2017-09-18T18:38:17.991Z,15.53
2017-09-18T18:40:45.549Z,15.63
2017-09-18T18:43:13.999Z,17.80
2017-09-18T18:45:41.606Z,17.77
2017-09-18T18:48:09.457Z,14.97
2017-09-18T18:50:38.075Z,14.43
2017-09-18T18:53:06.497Z,12.93
2017-09-18T18:55:34.051Z,16.23
2017-09-18T18:58:01.704Z,13.20
2017-09-18T19:00:29.298Z,13.50
2017-09-18T19:02:56.899Z,12.30
2017-09-18T19:05:24.417Z,13.00
2017-09-18T19:07:51.974Z,13.67
2017-09-18T19:10:19.787Z,15.23
2017-09-18T19:12:47.348Z,14.10
2017-09-18T19:15:14.953Z,13.10
2017-09-18T19:17:42.893Z,15.57
2017-09-18T19:20:10.476Z,15.20
2017-09-18T19:22:39.046Z,13.27
2017-09-18T19:25:06.580Z,12.80
2017-09-18T19:27:34.349Z,12.00
2017-09-18T19:30:01.994Z,12.27
2017-09-18T19:32:29.616Z,12.90
2017-09-18T19:34:57.378Z,13.10
2017-09-18T19:37:24.963Z,12.50
2017-09-18T19:39:52.571Z,13.73
2017-09-18T19:42:20.097Z,12.27
2017-09-18T19:44:47.890Z,14.60
2017-09-18T19:47:15.600Z,14.40
2017-09-18T19:49:43.233Z,12.93
2017-09-18T19:52:10.851Z,13.47
2017-09-18T19:54:38.446Z,15.13
2017-09-18T19:57:05.996Z,16.03
2017-09-18T19:59:33.600Z,13.17
2017-09-18T20:02:01.185Z,12.07
2017-09-18T20:04:28.759Z,12.30
2017-09-18T20:06:56.311Z,12.23
2017-09-18T20:09:23.931Z,12.73
2017-09-18T20:11:51.526Z,13.33
2017-09-18T20:14:19.323Z,12.90
2017-09-18T20:16:46.902Z,12.77
2017-09-18T20:19:14.477Z,14.07
2017-09-18T20:21:42.049Z,12.23
2017-09-18T20:24:09.607Z,13.17
2017-09-18T20:26:38.144Z,13.67
2017-09-18T20:29:05.675Z,12.40
2017-09-18T20:31:33.300Z,12.40
2017-09-18T20:34:00.881Z,12.70
2017-09-18T20:36:28.698Z,12.80
2017-09-18T20:38:56.516Z,13.10
2017-09-18T20:41:24.177Z,13.80
2017-09-18T20:43:53.232Z,13.80
2017-09-18T20:46:20.867Z,13.13
2017-09-18T20:48:48.453Z,12.10
2017-09-18T20:51:16.030Z,12.00
2017-09-18T20:53:43.646Z,13.03
2017-09-18T20:56:11.302Z,14.17
2017-09-18T20:58:39.046Z,14.20
2017-09-18T21:01:06.642Z,13.53
2017-09-18T21:03:34.209Z,14.27
2017-09-18T21:06:01.811Z,14.07
2017-09-18T21:08:29.505Z,14.23
2017-09-18T21:10:57.061Z,14.20
2017-09-18T21:13:24.613Z,12.17
2017-09-18T21:15:52.201Z,11.93
2017-09-18T21:18:19.748Z,10.87
2017-09-18T21:20:47.307Z,12.97
2017-09-18T21:23:14.906Z,13.87
2017-09-18T21:25:42.482Z,11.70
2017-09-18T21:28:10.265Z,13.33
2017-09-18T21:30:37.972Z,12.27
2017-09-18T21:33:05.550Z,12.90
2017-09-18T21:35:33.154Z,14.53
2017-09-18T21:38:00.783Z,13.43
2017-09-18T21:40:28.307Z,13.07
2017-09-18T21:42:55.927Z,13.77
2017-09-18T21:45:23.537Z,12.73
2017-09-18T21:47:51.092Z,13.20
2017-09-18T21:50:18.855Z,13.43
2017-09-18T21:52:46.431Z,13.07
2017-09-18T21:55:13.980Z,13.20
2017-09-18T21:57:49.990Z,12.30
2017-09-18T22:00:17.607Z,12.00
2017-09-18T22:02:45.218Z,11.97
2017-09-18T22:05:15.340Z,12.40
2017-09-18T22:07:43.000Z,12.03
2017-09-18T22:10:10.611Z,11.80
2017-09-18T22:12:38.183Z,10.57
2017-09-18T22:15:06.725Z,8.97
2017-09-18T22:17:34.607Z,10.33
2017-09-18T22:23:23.071Z,9.10
2017-09-18T22:25:50.693Z,10.00
2017-09-18T22:28:18.388Z,9.70
2017-09-18T22:30:46.047Z,9.57
2017-09-18T22:33:13.636Z,10.47
2017-09-18T22:35:41.451Z,9.53
2017-09-18T22:38:09.078Z,9.10
2017-09-18T22:40:36.773Z,11.20
2017-09-18T22:43:04.795Z,10.07
2017-09-18T22:45:32.405Z,9.97
2017-09-18T22:47:59.960Z,10.00
2017-09-18T22:50:27.511Z,7.83
2017-09-18T22:52:55.161Z,10.13
2017-09-18T22:55:22.748Z,8.33
2017-09-18T22:57:50.274Z,9.47
2017-09-18T23:00:17.915Z,9.20
2017-09-18T23:02:45.759Z,9.50
2017-09-18T23:05:13.281Z,9.77
2017-09-18T23:07:40.872Z,8.90
2017-09-18T23:10:08.425Z,9.20
2017-09-18T23:12:36.910Z,9.30
2017-09-18T23:15:04.503Z,10.13
2017-09-18T23:17:32.039Z,9.10
2017-09-18T23:19:59.651Z,10.33
2017-09-18T23:22:27.221Z,10.57
2017-09-18T23:24:54.774Z,9.53
2017-09-18T23:27:22.342Z,10.40
2017-09-18T23:29:49.951Z,9.93
2017-09-18T23:32:17.521Z,9.80
2017-09-18T23:34:45.060Z,10.90
2017-09-18T23:37:13.156Z,9.70
2017-09-18T23:39:40.721Z,9.03
2017-09-18T23:42:08.286Z,10.10
2017-09-18T23:44:35.822Z,12.03
2017-09-18T23:47:03.634Z,10.83
2017-09-18T23:49:31.155Z,9.73
2017-09-18T23:51:58.688Z,9.80
2017-09-18T23:54:26.624Z,9.20
2017-09-18T23:56:54.995Z,10.93
2017-09-18T23:59:22.784Z,10.93
